Time,TemperatureF,DewpointF,PressureIn,WindDirection,WindDirectionDegrees,WindSpeedMPH,WindSpeedGustMPH,Humidity,HourlyPrecipIn,Conditions,Clouds,dailyrainin,SolarRadiationWatts/m^2,SoftwareType,DateUTC
2013-05-24 00:11:00,50.0,38.0,-100.00,NE,49,1.0,2.0,63,-99.99,,,-99.99,0.000000,,2013-05-24 07:11:00,
2013-05-24 01:11:00,48.0,37.0,-100.00,ENE,70,1.0,4.0,67,-99.99,,,0.00,0.120000,,2013-05-24 08:11:00,
2013-05-24 02:11:00,46.0,39.0,-100.00,West,274,0.0,2.0,76,-99.99,,,0.00,0.120000,,2013-05-24 09:11:00,
2013-05-24 03:12:00,45.0,39.0,-100.00,NNW,346,1.0,2.0,78,-99.99,,,0.00,0.120000,,2013-05-24 10:12:00,
2013-05-24 04:12:00,45.0,39.0,-100.00,South,177,2.0,5.0,79,-99.99,,,0.00,0.120000,,2013-05-24 11:12:00,
2013-05-24 05:11:00,44.0,38.0,-100.00,SSE,160,2.0,5.0,79,-99.99,,,0.00,0.120000,,2013-05-24 12:11:00,
2013-05-24 06:11:00,44.0,38.0,-100.00,SE,133,2.0,7.0,79,-99.99,,,0.00,7.670000,,2013-05-24 13:11:00,
2013-05-24 07:11:00,46.0,37.0,-100.00,East,79,2.0,7.0,71,-99.99,,,0.00,155.850006,,2013-05-24 14:11:00,
2013-05-24 08:11:00,46.0,37.0,-100.00,ENE,76,7.0,12.0,69,-99.99,,,0.00,144.229996,,2013-05-24 15:11:00,
2013-05-24 09:12:00,48.0,37.0,-100.00,East,80,6.0,10.0,66,-99.99,,,0.00,417.230011,,2013-05-24 16:12:00,
2013-05-24 10:12:00,52.0,39.0,-100.00,ENE,75,4.0,9.0,61,-99.99,,,0.00,608.640015,,2013-05-24 17:12:00,
2013-05-24 12:11:00,55.0,41.0,-100.00,South,174,8.0,16.0,58,-99.99,,,-99.99,781.109985,,2013-05-24 19:11:00,
2013-05-24 13:11:00,56.0,41.0,-100.00,South,179,10.0,18.0,57,-99.99,,,0.00,812.380005,,2013-05-24 20:11:00,
2013-05-24 14:11:00,58.0,40.0,-100.00,SSE,166,5.0,16.0,52,-99.99,,,0.00,607.130005,,2013-05-24 21:11:00,
2013-05-24 14:32:00,55.0,41.0,-100.00,South,171,5.0,13.0,57,-99.99,,,0.00,488.709991,,2013-05-24 21:32:00,
2013-05-24 14:42:00,55.0,41.0,-100.00,South,171,5.0,13.0,57,-99.99,,,0.00,488.709991,,2013-05-24 21:42:00,
2013-05-24 14:53:00,55.0,41.0,-100.00,South,171,5.0,13.0,57,-99.99,,,0.00,488.709991,,2013-05-24 21:53:00,
2013-05-24 15:02:00,55.0,41.0,-100.00,South,171,5.0,13.0,57,-99.99,,,0.00,488.709991,,2013-05-24 22:02:00,
2013-05-24 15:12:00,55.0,41.0,-100.00,South,171,5.0,13.0,57,-99.99,,,0.00,488.709991,,2013-05-24 22:12:00,
2013-05-24 16:11:00,57.0,40.0,-100.00,SSW,201,5.0,12.0,51,-99.99,,,0.00,508.459991,,2013-05-24 23:11:00,
2013-05-24 17:11:00,58.0,39.0,-100.00,SE,129,2.0,7.0,49,-99.99,,,0.00,227.789993,,2013-05-25 00:11:00,
2013-05-24 18:11:00,58.0,39.0,-100.00,East,86,3.0,6.0,49,-99.99,,,0.00,161.429993,,2013-05-25 01:11:00,
2013-05-24 19:11:00,56.0,42.0,-100.00,East,79,8.0,13.0,60,-99.99,,,0.00,225.580002,,2013-05-25 02:11:00,
2013-05-24 20:11:00,57.0,39.0,-100.00,ENE,76,6.0,9.0,51,-99.99,,,0.00,134.470001,,2013-05-25 03:11:00,
2013-05-24 21:12:00,55.0,40.0,-100.00,South,190,2.0,5.0,56,-99.99,,,0.00,17.670000,,2013-05-25 04:12:00,
2013-05-24 22:12:00,52.0,40.0,-100.00,ENE,69,5.0,9.0,63,-99.99,,,0.00,0.120000,,2013-05-25 05:12:00,
2013-05-24 23:12:00,52.0,42.0,-100.00,ENE,70,4.0,10.0,67,-99.99,,,0.00,0.000000,,2013-05-25 06:12:00,